This is the latest recevied weather packets stored in our database for station/object EA4IAJ-12. If no packets are shown the sender has not sent any weather packets the latest 10 day(s).
| Time | Temp. | Humidity | Pressure | Rain* | Wind** | Luminosity | Snow |
|---|---|---|---|---|---|---|---|
| 1787889093 | 12.78° C | 100% | 990.7 hPa | - | - | - | - |
| 1787888193 | 12.22° C | 100% | 989.7 hPa | - | - | - | - |
| 1787887292 | 12.78° C | 100% | 991.2 hPa | - | - | - | - |
| 1787886392 | 12.78° C | 100% | 990.4 hPa | - | - | - | - |
| 1787885491 | 12.78° C | 100% | 991.2 hPa | - | - | - | - |
| 1787884590 | 13.33° C | 100% | 992.8 hPa | - | - | - | - |
| 1787883690 | 13.33° C | 100% | 992.9 hPa | - | - | - | - |
| 1787882789 | 13.33° C | 100% | 992.1 hPa | - | - | - | - |
| 1787881889 | 13.89° C | 100% | 993.9 hPa | - | - | - | - |
| 1787880988 | 13.89° C | 100% | 994.1 hPa | - | - | - | - |
| 1787880087 | 13.89° C | 100% | 994 hPa | - | - | - | - |
| 1787879187 | 14.44° C | 100% | 995.8 hPa | - | - | - | - |
| 1787878286 | 13.89° C | 100% | 993.6 hPa | - | - | - | - |
| 1787877386 | 15° C | 100% | 996.4 hPa | - | - | - | - |
| 1787876485 | 15° C | 100% | 997 hPa | - | - | - | - |
| 1787875585 | 15° C | 100% | 997.9 hPa | - | - | - | - |
| 1787874684 | 14.44° C | 100% | 995.8 hPa | - | - | - | - |
| 1787873784 | 15° C | 100% | 996.1 hPa | - | - | - | - |
| 1787872883 | 15.56° C | 100% | 998 hPa | - | - | - | - |
| 1787871982 | 16.11° C | 100% | 1000.1 hPa | - | - | - | - |
| 1787871082 | 16.11° C | 100% | 1000.4 hPa | - | - | - | - |
| 1787870182 | 16.67° C | 100% | 1001.9 hPa | - | - | - | - |
| 1787869281 | 16.67° C | 100% | 1001.1 hPa | - | - | - | - |
| 1787868381 | 16.67° C | 100% | 1000.7 hPa | - | - | - | - |
| 1787867492 | 16.11° C | 100% | 1000.5 hPa | - | - | - | - |
* Rain since midnight (hover to see other rain measurements)
** Current wind speed in m/s (hover to see current wind gust speed)